sensor_id;sensor_type;location;lat;lon;timestamp;pressure;altitude;pressure_sealevel;temperature;humidity
10832;BME280;5469;48.574;8.768;2023-01-25T00:00:41;96291.75;;;2.19;93.16
10832;BME280;5469;48.574;8.768;2023-01-25T00:03:15;96278.41;;;2.14;94.70
10832;BME280;5469;48.574;8.768;2023-01-25T00:05:57;96282.53;;;2.24;93.41
10832;BME280;5469;48.574;8.768;2023-01-25T00:08:32;96269.72;;;2.29;92.73
10832;BME280;5469;48.574;8.768;2023-01-25T00:11:05;96271.19;;;2.16;92.67
10832;BME280;5469;48.574;8.768;2023-01-25T00:13:39;96263.97;;;2.18;92.86
10832;BME280;5469;48.574;8.768;2023-01-25T00:16:14;96264.34;;;2.15;93.33
10832;BME280;5469;48.574;8.768;2023-01-25T00:18:48;96267.22;;;2.21;92.86
10832;BME280;5469;48.574;8.768;2023-01-25T00:21:23;96267.56;;;2.17;93.69
10832;BME280;5469;48.574;8.768;2023-01-25T00:23:57;96261.09;;;2.13;93.52
10832;BME280;5469;48.574;8.768;2023-01-25T00:26:31;96263.44;;;2.08;94.23
10832;BME280;5469;48.574;8.768;2023-01-25T00:29:05;96265.34;;;2.00;95.41
10832;BME280;5469;48.574;8.768;2023-01-25T00:31:50;96256.91;;;2.34;92.38
10832;BME280;5469;48.574;8.768;2023-01-25T00:34:41;96253.97;;;2.07;93.35
10832;BME280;5469;48.574;8.768;2023-01-25T00:37:23;96249.09;;;2.19;93.31
10832;BME280;5469;48.574;8.768;2023-01-25T00:39:57;96229.66;;;1.92;95.47
10832;BME280;5469;48.574;8.768;2023-01-25T00:42:30;96236.19;;;2.17;94.01
10832;BME280;5469;48.574;8.768;2023-01-25T00:45:05;96234.56;;;2.16;93.66
10832;BME280;5469;48.574;8.768;2023-01-25T00:47:39;96244.13;;;2.09;93.93
10832;BME280;5469;48.574;8.768;2023-01-25T00:50:13;96240.31;;;2.27;92.80
10832;BME280;5469;48.574;8.768;2023-01-25T00:52:47;96243.25;;;2.02;94.00
10832;BME280;5469;48.574;8.768;2023-01-25T00:55:20;96237.06;;;2.25;93.08
10832;BME280;5469;48.574;8.768;2023-01-25T00:57:53;96254.75;;;2.23;93.35
10832;BME280;5469;48.574;8.768;2023-01-25T01:00:27;96256.97;;;2.04;93.98
10832;BME280;5469;48.574;8.768;2023-01-25T01:03:02;96253.66;;;2.32;93.34
10832;BME280;5469;48.574;8.768;2023-01-25T01:05:35;96241.06;;;2.21;93.30
10832;BME280;5469;48.574;8.768;2023-01-25T01:08:09;96235.84;;;2.21;92.72
10832;BME280;5469;48.574;8.768;2023-01-25T01:10:43;96237.06;;;2.25;93.14
10832;BME280;5469;48.574;8.768;2023-01-25T01:13:16;96240.59;;;2.17;93.36
10832;BME280;5469;48.574;8.768;2023-01-25T01:15:50;96231.31;;;2.14;93.08
10832;BME280;5469;48.574;8.768;2023-01-25T01:18:25;96236.13;;;2.11;93.81
10832;BME280;5469;48.574;8.768;2023-01-25T01:20:58;96235.50;;;2.30;92.66
10832;BME280;5469;48.574;8.768;2023-01-25T01:23:31;96235.56;;;2.15;93.27
10832;BME280;5469;48.574;8.768;2023-01-25T01:26:06;96243.75;;;2.12;93.44
10832;BME280;5469;48.574;8.768;2023-01-25T01:28:40;96236.94;;;2.11;94.18
10832;BME280;5469;48.574;8.768;2023-01-25T01:31:16;96237.22;;;2.02;93.70
10832;BME280;5469;48.574;8.768;2023-01-25T01:33:52;96237.00;;;2.18;94.34
10832;BME280;5469;48.574;8.768;2023-01-25T01:36:28;96242.69;;;2.22;93.67
10832;BME280;5469;48.574;8.768;2023-01-25T01:39:01;96242.16;;;2.11;93.96
10832;BME280;5469;48.574;8.768;2023-01-25T01:41:35;96222.13;;;2.18;93.60
10832;BME280;5469;48.574;8.768;2023-01-25T01:44:14;96226.03;;;2.08;93.76
10832;BME280;5469;48.574;8.768;2023-01-25T01:46:52;96234.31;;;2.11;93.91
10832;BME280;5469;48.574;8.768;2023-01-25T01:49:30;96231.06;;;2.09;94.33
10832;BME280;5469;48.574;8.768;2023-01-25T01:52:06;96231.56;;;2.19;93.46
10832;BME280;5469;48.574;8.768;2023-01-25T01:54:45;96233.09;;;2.29;92.67
10832;BME280;5469;48.574;8.768;2023-01-25T01:57:22;96227.72;;;2.15;93.36
10832;BME280;5469;48.574;8.768;2023-01-25T02:00:02;96231.53;;;1.98;95.14
10832;BME280;5469;48.574;8.768;2023-01-25T02:02:36;96223.72;;;2.19;93.77
10832;BME280;5469;48.574;8.768;2023-01-25T02:05:16;96227.22;;;2.05;95.02
10832;BME280;5469;48.574;8.768;2023-01-25T02:07:53;96222.41;;;2.09;94.51
10832;BME280;5469;48.574;8.768;2023-01-25T02:10:27;96229.50;;;2.15;94.02
10832;BME280;5469;48.574;8.768;2023-01-25T02:13:02;96222.25;;;2.32;92.89
10832;BME280;5469;48.574;8.768;2023-01-25T02:15:37;96226.00;;;2.44;91.39
10832;BME280;5469;48.574;8.768;2023-01-25T02:18:12;96222.63;;;2.29;91.95
10832;BME280;5469;48.574;8.768;2023-01-25T02:20:49;96228.44;;;2.09;94.23
10832;BME280;5469;48.574;8.768;2023-01-25T02:23:28;96230.09;;;2.10;94.33
10832;BME280;5469;48.574;8.768;2023-01-25T02:26:05;96234.94;;;2.13;93.51
10832;BME280;5469;48.574;8.768;2023-01-25T02:28:41;96226.47;;;2.33;93.53
10832;BME280;5469;48.574;8.768;2023-01-25T02:31:16;96229.47;;;2.30;93.19
10832;BME280;5469;48.574;8.768;2023-01-25T02:33:50;96232.31;;;2.13;93.67
10832;BME280;5469;48.574;8.768;2023-01-25T02:36:25;96228.44;;;2.09;94.47
10832;BME280;5469;48.574;8.768;2023-01-25T02:39:01;96218.88;;;2.16;94.61
10832;BME280;5469;48.574;8.768;2023-01-25T02:41:38;96219.25;;;2.35;92.65
10832;BME280;5469;48.574;8.768;2023-01-25T02:44:14;96204.91;;;2.31;92.07
10832;BME280;5469;48.574;8.768;2023-01-25T02:46:48;96218.25;;;2.14;94.49
10832;BME280;5469;48.574;8.768;2023-01-25T02:49:21;96219.09;;;2.00;95.39
10832;BME280;5469;48.574;8.768;2023-01-25T02:51:55;96216.28;;;2.38;93.40
10832;BME280;5469;48.574;8.768;2023-01-25T02:54:29;96216.50;;;2.22;93.33
10832;BME280;5469;48.574;8.768;2023-01-25T02:57:04;96211.56;;;2.12;94.62
10832;BME280;5469;48.574;8.768;2023-01-25T02:59:37;96213.41;;;2.33;92.82
10832;BME280;5469;48.574;8.768;2023-01-25T03:02:11;96213.47;;;2.39;92.43
10832;BME280;5469;48.574;8.768;2023-01-25T03:04:45;96199.56;;;2.17;92.71
10832;BME280;5469;48.574;8.768;2023-01-25T03:07:18;96200.38;;;2.18;93.68
10832;BME280;5469;48.574;8.768;2023-01-25T03:09:52;96203.31;;;2.30;92.44
10832;BME280;5469;48.574;8.768;2023-01-25T03:12:26;96206.06;;;2.22;93.61
10832;BME280;5469;48.574;8.768;2023-01-25T03:15:00;96202.69;;;2.28;93.34
10832;BME280;5469;48.574;8.768;2023-01-25T03:17:33;96204.44;;;2.21;93.35
10832;BME280;5469;48.574;8.768;2023-01-25T03:20:08;96201.81;;;2.42;91.97
10832;BME280;5469;48.574;8.768;2023-01-25T03:22:42;96197.81;;;2.46;91.83
10832;BME280;5469;48.574;8.768;2023-01-25T03:25:15;96183.94;;;2.46;91.02
10832;BME280;5469;48.574;8.768;2023-01-25T03:27:50;96185.88;;;2.37;91.86
10832;BME280;5469;48.574;8.768;2023-01-25T03:30:25;96175.59;;;2.35;91.41
10832;BME280;5469;48.574;8.768;2023-01-25T03:32:58;96176.53;;;2.49;91.32
10832;BME280;5469;48.574;8.768;2023-01-25T03:35:32;96173.66;;;2.44;91.41
10832;BME280;5469;48.574;8.768;2023-01-25T03:38:05;96169.03;;;2.46;91.10
10832;BME280;5469;48.574;8.768;2023-01-25T03:40:38;96168.53;;;2.57;90.41
10832;BME280;5469;48.574;8.768;2023-01-25T03:43:13;96167.56;;;2.37;91.75
10832;BME280;5469;48.574;8.768;2023-01-25T03:45:51;96163.94;;;2.38;91.70
10832;BME280;5469;48.574;8.768;2023-01-25T03:48:25;96166.81;;;2.43;91.90
10832;BME280;5469;48.574;8.768;2023-01-25T03:50:59;96165.06;;;2.29;92.33
10832;BME280;5469;48.574;8.768;2023-01-25T03:53:33;96166.31;;;2.33;92.63
10832;BME280;5469;48.574;8.768;2023-01-25T03:56:08;96165.94;;;2.36;91.32
10832;BME280;5469;48.574;8.768;2023-01-25T03:58:44;96159.97;;;2.21;93.27
10832;BME280;5469;48.574;8.768;2023-01-25T04:01:18;96159.78;;;2.22;93.55
10832;BME280;5469;48.574;8.768;2023-01-25T04:03:51;96151.38;;;2.27;93.19
10832;BME280;5469;48.574;8.768;2023-01-25T04:06:25;96159.88;;;2.35;91.94
10832;BME280;5469;48.574;8.768;2023-01-25T04:08:59;96158.47;;;2.33;92.72
10832;BME280;5469;48.574;8.768;2023-01-25T04:11:35;96159.19;;;2.48;90.64
10832;BME280;5469;48.574;8.768;2023-01-25T04:14:10;96167.31;;;2.32;90.89
10832;BME280;5469;48.574;8.768;2023-01-25T04:16:43;96166.19;;;2.19;92.47
10832;BME280;5469;48.574;8.768;2023-01-25T04:19:17;96157.47;;;2.34;92.07
10832;BME280;5469;48.574;8.768;2023-01-25T04:21:50;96161.56;;;2.43;90.76
10832;BME280;5469;48.574;8.768;2023-01-25T04:24:24;96161.84;;;2.27;91.92
10832;BME280;5469;48.574;8.768;2023-01-25T04:26:57;96155.59;;;2.28;91.47
10832;BME280;5469;48.574;8.768;2023-01-25T04:29:32;96147.00;;;2.34;90.79
10832;BME280;5469;48.574;8.768;2023-01-25T04:32:06;96159.00;;;2.28;91.62
10832;BME280;5469;48.574;8.768;2023-01-25T04:34:39;96158.69;;;2.38;91.12
10832;BME280;5469;48.574;8.768;2023-01-25T04:37:12;96147.75;;;2.28;91.10
10832;BME280;5469;48.574;8.768;2023-01-25T04:39:45;96150.53;;;2.05;92.57
10832;BME280;5469;48.574;8.768;2023-01-25T04:42:19;96148.00;;;2.11;93.23
10832;BME280;5469;48.574;8.768;2023-01-25T04:44:54;96151.75;;;2.24;92.31
10832;BME280;5469;48.574;8.768;2023-01-25T04:47:27;96151.28;;;2.20;92.09
10832;BME280;5469;48.574;8.768;2023-01-25T04:50:00;96159.84;;;2.29;92.22
10832;BME280;5469;48.574;8.768;2023-01-25T04:52:34;96149.84;;;2.17;92.08
10832;BME280;5469;48.574;8.768;2023-01-25T04:55:08;96146.88;;;2.42;90.58
10832;BME280;5469;48.574;8.768;2023-01-25T04:57:41;96157.53;;;2.40;90.23
10832;BME280;5469;48.574;8.768;2023-01-25T05:00:20;96147.75;;;2.28;90.84
10832;BME280;5469;48.574;8.768;2023-01-25T05:02:53;96152.34;;;2.26;91.74
10832;BME280;5469;48.574;8.768;2023-01-25T05:05:27;96146.38;;;2.32;90.55
10832;BME280;5469;48.574;8.768;2023-01-25T05:08:00;96144.03;;;2.15;91.53
10832;BME280;5469;48.574;8.768;2023-01-25T05:10:34;96144.88;;;2.23;92.24
10832;BME280;5469;48.574;8.768;2023-01-25T05:13:07;96148.06;;;2.39;90.69
10832;BME280;5469;48.574;8.768;2023-01-25T05:15:42;96148.53;;;2.28;91.69
10832;BME280;5469;48.574;8.768;2023-01-25T05:18:16;96144.41;;;2.34;91.39
10832;BME280;5469;48.574;8.768;2023-01-25T05:20:53;96141.00;;;2.40;90.41
10832;BME280;5469;48.574;8.768;2023-01-25T05:23:27;96136.91;;;2.31;90.36
10832;BME280;5469;48.574;8.768;2023-01-25T05:26:00;96142.88;;;2.25;91.48
10832;BME280;5469;48.574;8.768;2023-01-25T05:28:51;96139.41;;;2.17;91.63
10832;BME280;5469;48.574;8.768;2023-01-25T05:31:26;96136.44;;;2.21;91.45
10832;BME280;5469;48.574;8.768;2023-01-25T05:33:59;96134.91;;;2.33;89.80
10832;BME280;5469;48.574;8.768;2023-01-25T05:36:33;96138.78;;;2.15;90.55
10832;BME280;5469;48.574;8.768;2023-01-25T05:39:06;96138.03;;;2.22;90.16
10832;BME280;5469;48.574;8.768;2023-01-25T05:41:40;96141.78;;;2.34;90.04
10832;BME280;5469;48.574;8.768;2023-01-25T05:44:15;96145.19;;;2.34;90.85
10832;BME280;5469;48.574;8.768;2023-01-25T05:46:50;96142.75;;;2.54;88.48
10832;BME280;5469;48.574;8.768;2023-01-25T05:49:23;96140.53;;;2.30;89.53
10832;BME280;5469;48.574;8.768;2023-01-25T05:51:57;96140.13;;;2.33;89.94
10832;BME280;5469;48.574;8.768;2023-01-25T05:54:30;96144.50;;;2.26;90.28
10832;BME280;5469;48.574;8.768;2023-01-25T05:57:03;96147.34;;;2.31;89.50
10832;BME280;5469;48.574;8.768;2023-01-25T05:59:37;96138.47;;;2.25;89.20
10832;BME280;5469;48.574;8.768;2023-01-25T06:02:11;96141.59;;;2.14;90.91
10832;BME280;5469;48.574;8.768;2023-01-25T06:04:45;96134.16;;;2.17;89.91
10832;BME280;5469;48.574;8.768;2023-01-25T06:07:18;96132.50;;;2.31;89.04
10832;BME280;5469;48.574;8.768;2023-01-25T06:09:52;96125.34;;;2.18;89.74
10832;BME280;5469;48.574;8.768;2023-01-25T06:12:25;96124.56;;;2.46;88.42
10832;BME280;5469;48.574;8.768;2023-01-25T06:14:58;96128.56;;;2.42;88.85
10832;BME280;5469;48.574;8.768;2023-01-25T06:17:33;96125.06;;;2.35;88.58
10832;BME280;5469;48.574;8.768;2023-01-25T06:20:08;96125.22;;;2.27;89.23
10832;BME280;5469;48.574;8.768;2023-01-25T06:22:42;96121.97;;;2.25;89.58
10832;BME280;5469;48.574;8.768;2023-01-25T06:25:15;96122.94;;;2.45;89.05
10832;BME280;5469;48.574;8.768;2023-01-25T06:27:49;96122.44;;;2.35;88.60
10832;BME280;5469;48.574;8.768;2023-01-25T06:30:22;96126.09;;;2.34;89.05
10832;BME280;5469;48.574;8.768;2023-01-25T06:32:58;96129.69;;;2.33;88.40
10832;BME280;5469;48.574;8.768;2023-01-25T06:35:32;96130.44;;;2.27;89.07
10832;BME280;5469;48.574;8.768;2023-01-25T06:38:06;96126.31;;;2.17;90.02
10832;BME280;5469;48.574;8.768;2023-01-25T06:40:39;96125.63;;;2.30;89.63
10832;BME280;5469;48.574;8.768;2023-01-25T06:43:12;96124.09;;;2.14;90.40
10832;BME280;5469;48.574;8.768;2023-01-25T06:45:46;96117.44;;;1.90;91.20
10832;BME280;5469;48.574;8.768;2023-01-25T06:48:21;96119.75;;;2.00;91.24
10832;BME280;5469;48.574;8.768;2023-01-25T06:50:55;96122.38;;;2.28;90.54
10832;BME280;5469;48.574;8.768;2023-01-25T06:53:30;96123.31;;;2.42;88.92
10832;BME280;5469;48.574;8.768;2023-01-25T06:56:05;96110.41;;;2.40;88.65
10832;BME280;5469;48.574;8.768;2023-01-25T06:58:40;96116.34;;;2.28;89.93
10832;BME280;5469;48.574;8.768;2023-01-25T07:01:15;96117.94;;;2.50;88.23
10832;BME280;5469;48.574;8.768;2023-01-25T07:03:53;96112.06;;;2.42;88.81
10832;BME280;5469;48.574;8.768;2023-01-25T07:06:31;96111.59;;;2.38;89.48
10832;BME280;5469;48.574;8.768;2023-01-25T07:09:06;96107.88;;;2.47;88.14
10832;BME280;5469;48.574;8.768;2023-01-25T07:11:40;96113.75;;;2.56;87.71
10832;BME280;5469;48.574;8.768;2023-01-25T07:14:14;96111.91;;;2.28;88.43
10832;BME280;5469;48.574;8.768;2023-01-25T07:16:47;96112.53;;;2.52;87.87
10832;BME280;5469;48.574;8.768;2023-01-25T07:19:22;96106.06;;;2.48;88.32
10832;BME280;5469;48.574;8.768;2023-01-25T07:21:55;96103.75;;;2.38;88.44
10832;BME280;5469;48.574;8.768;2023-01-25T07:24:29;96100.66;;;2.28;88.19
10832;BME280;5469;48.574;8.768;2023-01-25T07:27:02;96085.09;;;2.19;89.05
10832;BME280;5469;48.574;8.768;2023-01-25T07:29:35;96085.97;;;2.55;87.32
10832;BME280;5469;48.574;8.768;2023-01-25T07:32:10;96086.31;;;2.45;87.72
10832;BME280;5469;48.574;8.768;2023-01-25T07:34:45;96084.47;;;2.39;88.24
10832;BME280;5469;48.574;8.768;2023-01-25T07:37:19;96081.94;;;2.52;87.48
10832;BME280;5469;48.574;8.768;2023-01-25T07:39:52;96078.47;;;2.45;87.36
10832;BME280;5469;48.574;8.768;2023-01-25T07:42:29;96086.22;;;2.32;88.85
10832;BME280;5469;48.574;8.768;2023-01-25T07:45:02;96078.22;;;2.40;88.67
10832;BME280;5469;48.574;8.768;2023-01-25T07:47:36;96085.50;;;2.45;88.31
10832;BME280;5469;48.574;8.768;2023-01-25T07:50:11;96089.94;;;2.44;87.44
10832;BME280;5469;48.574;8.768;2023-01-25T07:52:44;96081.59;;;2.34;88.05
10832;BME280;5469;48.574;8.768;2023-01-25T07:55:18;96074.22;;;2.44;88.41
10832;BME280;5469;48.574;8.768;2023-01-25T07:57:53;96081.56;;;2.55;86.45
10832;BME280;5469;48.574;8.768;2023-01-25T08:00:27;96075.66;;;2.47;87.69
10832;BME280;5469;48.574;8.768;2023-01-25T08:03:00;96079.50;;;2.51;87.13
10832;BME280;5469;48.574;8.768;2023-01-25T08:05:35;96077.44;;;2.46;86.98
10832;BME280;5469;48.574;8.768;2023-01-25T08:08:08;96076.94;;;2.57;86.08
10832;BME280;5469;48.574;8.768;2023-01-25T08:10:41;96075.13;;;2.58;85.90
10832;BME280;5469;48.574;8.768;2023-01-25T08:13:15;96084.03;;;2.63;85.60
10832;BME280;5469;48.574;8.768;2023-01-25T08:15:52;96089.34;;;2.77;85.21
10832;BME280;5469;48.574;8.768;2023-01-25T08:18:26;96077.03;;;2.71;86.49
10832;BME280;5469;48.574;8.768;2023-01-25T08:21:01;96083.69;;;2.73;85.98
10832;BME280;5469;48.574;8.768;2023-01-25T08:23:34;96084.88;;;2.71;85.29
10832;BME280;5469;48.574;8.768;2023-01-25T08:26:09;96078.88;;;2.77;85.36
10832;BME280;5469;48.574;8.768;2023-01-25T08:28:43;96086.00;;;2.61;86.61
10832;BME280;5469;48.574;8.768;2023-01-25T08:31:19;96092.97;;;2.76;86.02
10832;BME280;5469;48.574;8.768;2023-01-25T08:33:53;96090.50;;;2.68;86.41
10832;BME280;5469;48.574;8.768;2023-01-25T08:36:28;96088.94;;;2.80;86.00
10832;BME280;5469;48.574;8.768;2023-01-25T08:39:05;96088.69;;;2.40;87.36
10832;BME280;5469;48.574;8.768;2023-01-25T08:41:39;96080.69;;;2.48;87.22
10832;BME280;5469;48.574;8.768;2023-01-25T08:44:13;96083.25;;;2.70;86.16
10832;BME280;5469;48.574;8.768;2023-01-25T08:46:47;96085.53;;;2.51;85.97
10832;BME280;5469;48.574;8.768;2023-01-25T08:49:20;96081.31;;;2.50;86.72
10832;BME280;5469;48.574;8.768;2023-01-25T08:51:55;96076.00;;;2.72;86.51
10832;BME280;5469;48.574;8.768;2023-01-25T08:54:29;96057.44;;;2.67;86.06
10832;BME280;5469;48.574;8.768;2023-01-25T08:57:02;96074.31;;;2.57;86.10
10832;BME280;5469;48.574;8.768;2023-01-25T08:59:37;96067.94;;;2.67;85.81
10832;BME280;5469;48.574;8.768;2023-01-25T09:02:11;96067.44;;;2.50;85.80
10832;BME280;5469;48.574;8.768;2023-01-25T09:04:44;96059.03;;;2.61;86.23
10832;BME280;5469;48.574;8.768;2023-01-25T09:07:19;96060.22;;;2.58;85.64
10832;BME280;5469;48.574;8.768;2023-01-25T09:09:52;96052.53;;;2.50;86.39
10832;BME280;5469;48.574;8.768;2023-01-25T09:12:26;96052.59;;;2.57;85.80
10832;BME280;5469;48.574;8.768;2023-01-25T09:14:59;96048.97;;;2.65;85.08
10832;BME280;5469;48.574;8.768;2023-01-25T09:17:32;96048.97;;;2.65;85.69
10832;BME280;5469;48.574;8.768;2023-01-25T09:20:10;96051.50;;;2.51;85.42
10832;BME280;5469;48.574;8.768;2023-01-25T09:22:45;96047.75;;;2.60;86.41
10832;BME280;5469;48.574;8.768;2023-01-25T09:25:18;96059.41;;;2.86;84.81
10832;BME280;5469;48.574;8.768;2023-01-25T09:27:52;96050.28;;;2.82;84.18
10832;BME280;5469;48.574;8.768;2023-01-25T09:30:25;96046.75;;;2.96;83.92
10832;BME280;5469;48.574;8.768;2023-01-25T09:32:58;96041.34;;;2.70;85.07
10832;BME280;5469;48.574;8.768;2023-01-25T09:35:34;96041.13;;;2.99;84.16
10832;BME280;5469;48.574;8.768;2023-01-25T09:38:09;96037.81;;;2.84;83.74
10832;BME280;5469;48.574;8.768;2023-01-25T09:40:50;96042.28;;;2.90;84.58
10832;BME280;5469;48.574;8.768;2023-01-25T09:43:38;96046.34;;;2.99;84.54
10832;BME280;5469;48.574;8.768;2023-01-25T09:46:21;96039.72;;;2.62;85.23
10832;BME280;5469;48.574;8.768;2023-01-25T09:49:05;96042.28;;;2.90;84.76
10832;BME280;5469;48.574;8.768;2023-01-25T09:51:57;96046.31;;;2.86;84.60
10832;BME280;5469;48.574;8.768;2023-01-25T09:54:38;96046.31;;;2.86;84.45
10832;BME280;5469;48.574;8.768;2023-01-25T09:57:15;96048.28;;;2.84;85.13
10832;BME280;5469;48.574;8.768;2023-01-25T09:59:50;96045.06;;;2.82;84.34
10832;BME280;5469;48.574;8.768;2023-01-25T10:02:34;96043.53;;;3.01;83.89
10832;BME280;5469;48.574;8.768;2023-01-25T10:05:13;96041.97;;;3.06;83.80
10832;BME280;5469;48.574;8.768;2023-01-25T10:07:55;96035.25;;;2.97;84.09
10832;BME280;5469;48.574;8.768;2023-01-25T10:10:35;96035.88;;;2.99;84.19
10832;BME280;5469;48.574;8.768;2023-01-25T10:13:12;96037.59;;;2.79;85.41
10832;BME280;5469;48.574;8.768;2023-01-25T10:15:48;96035.09;;;2.99;84.05
10832;BME280;5469;48.574;8.768;2023-01-25T10:18:27;96028.88;;;2.65;85.15
10832;BME280;5469;48.574;8.768;2023-01-25T10:21:06;96041.88;;;2.87;84.80
10832;BME280;5469;48.574;8.768;2023-01-25T10:26:52;96044.13;;;2.96;84.03
10832;BME280;5469;48.574;8.768;2023-01-25T10:29:30;96039.53;;;2.98;83.89
10832;BME280;5469;48.574;8.768;2023-01-25T10:32:12;96038.59;;;2.78;84.91
10832;BME280;5469;48.574;8.768;2023-01-25T10:34:48;96030.25;;;2.96;84.46
10832;BME280;5469;48.574;8.768;2023-01-25T10:37:25;96023.94;;;2.90;85.32
10832;BME280;5469;48.574;8.768;2023-01-25T10:40:02;96030.66;;;2.99;84.78
10832;BME280;5469;48.574;8.768;2023-01-25T10:42:42;96027.00;;;2.94;84.59
10832;BME280;5469;48.574;8.768;2023-01-25T10:45:17;96006.97;;;2.73;84.88
10832;BME280;5469;48.574;8.768;2023-01-25T10:47:53;96013.09;;;2.93;84.88
10832;BME280;5469;48.574;8.768;2023-01-25T10:50:43;95996.72;;;2.84;84.57
10832;BME280;5469;48.574;8.768;2023-01-25T10:53:29;96000.44;;;3.03;84.51
10832;BME280;5469;48.574;8.768;2023-01-25T10:56:13;95995.69;;;2.79;84.75
10832;BME280;5469;48.574;8.768;2023-01-25T10:59:04;95986.78;;;2.67;85.82
10832;BME280;5469;48.574;8.768;2023-01-25T11:01:38;95982.09;;;2.55;85.77
10832;BME280;5469;48.574;8.768;2023-01-25T11:04:30;95986.78;;;2.67;85.38
10832;BME280;5469;48.574;8.768;2023-01-25T11:07:04;95978.75;;;2.75;85.88
10832;BME280;5469;48.574;8.768;2023-01-25T11:09:38;95982.25;;;2.89;84.76
10832;BME280;5469;48.574;8.768;2023-01-25T11:12:16;95980.63;;;2.81;85.35
10832;BME280;5469;48.574;8.768;2023-01-25T11:14:52;95972.19;;;2.86;85.39
10832;BME280;5469;48.574;8.768;2023-01-25T11:17:27;95983.47;;;2.93;84.57
10832;BME280;5469;48.574;8.768;2023-01-25T11:20:14;95971.00;;;2.95;84.68
10832;BME280;5469;48.574;8.768;2023-01-25T11:22:50;95973.28;;;2.70;85.32
10832;BME280;5469;48.574;8.768;2023-01-25T11:25:26;95967.34;;;2.89;85.03
10832;BME280;5469;48.574;8.768;2023-01-25T11:28:17;95968.44;;;3.15;83.37
10832;BME280;5469;48.574;8.768;2023-01-25T11:30:52;95968.25;;;3.23;83.32
10832;BME280;5469;48.574;8.768;2023-01-25T11:33:25;95967.81;;;3.13;83.28
10832;BME280;5469;48.574;8.768;2023-01-25T11:36:13;95963.03;;;3.23;83.54
10832;BME280;5469;48.574;8.768;2023-01-25T11:38:59;95965.81;;;3.15;83.26
10832;BME280;5469;48.574;8.768;2023-01-25T11:41:45;95973.47;;;3.10;82.57
10832;BME280;5469;48.574;8.768;2023-01-25T11:47:32;95952.13;;;3.13;84.05
10832;BME280;5469;48.574;8.768;2023-01-25T11:50:14;95946.84;;;3.06;83.27
10832;BME280;5469;48.574;8.768;2023-01-25T11:53:05;95948.09;;;3.17;82.72
10832;BME280;5469;48.574;8.768;2023-01-25T11:55:53;95943.97;;;2.88;83.38
10832;BME280;5469;48.574;8.768;2023-01-25T11:58:42;95933.75;;;2.99;83.60
10832;BME280;5469;48.574;8.768;2023-01-25T12:01:25;95926.25;;;2.83;83.16
10832;BME280;5469;48.574;8.768;2023-01-25T12:04:20;95931.09;;;2.93;84.42
10832;BME280;5469;48.574;8.768;2023-01-25T12:06:58;95915.38;;;2.86;83.56
10832;BME280;5469;48.574;8.768;2023-01-25T12:09:51;95912.41;;;3.02;83.47
10832;BME280;5469;48.574;8.768;2023-01-25T12:12:37;95895.25;;;3.00;83.20
10832;BME280;5469;48.574;8.768;2023-01-25T12:15:27;95900.50;;;2.93;83.16
10832;BME280;5469;48.574;8.768;2023-01-25T12:18:27;95892.75;;;2.72;84.93
10832;BME280;5469;48.574;8.768;2023-01-25T12:21:15;95888.53;;;2.77;85.14
10832;BME280;5469;48.574;8.768;2023-01-25T12:24:03;95881.13;;;2.81;85.06
10832;BME280;5469;48.574;8.768;2023-01-25T12:26:47;95874.34;;;3.06;83.53
10832;BME280;5469;48.574;8.768;2023-01-25T12:29:25;95867.88;;;3.02;83.55
10832;BME280;5469;48.574;8.768;2023-01-25T12:32:04;95866.66;;;3.05;83.27
10832;BME280;5469;48.574;8.768;2023-01-25T12:34:42;95858.00;;;2.91;84.00
10832;BME280;5469;48.574;8.768;2023-01-25T12:37:23;95848.91;;;2.87;84.13
10832;BME280;5469;48.574;8.768;2023-01-25T12:39:59;95846.72;;;2.97;83.47
10832;BME280;5469;48.574;8.768;2023-01-25T12:42:38;95850.75;;;2.93;83.32
10832;BME280;5469;48.574;8.768;2023-01-25T12:45:16;95837.66;;;3.13;82.91
10832;BME280;5469;48.574;8.768;2023-01-25T12:47:55;95838.03;;;2.90;83.03
10832;BME280;5469;48.574;8.768;2023-01-25T12:50:31;95834.00;;;2.81;84.30
10832;BME280;5469;48.574;8.768;2023-01-25T12:53:17;95828.34;;;2.71;84.22
10832;BME280;5469;48.574;8.768;2023-01-25T12:55:52;95827.94;;;2.74;83.75
10832;BME280;5469;48.574;8.768;2023-01-25T12:58:34;95826.72;;;2.70;83.58
10832;BME280;5469;48.574;8.768;2023-01-25T13:01:15;95822.69;;;2.74;83.41
10832;BME280;5469;48.574;8.768;2023-01-25T13:04:02;95816.28;;;2.83;83.75
10832;BME280;5469;48.574;8.768;2023-01-25T13:06:43;95819.53;;;2.98;83.00
10832;BME280;5469;48.574;8.768;2023-01-25T13:09:22;95813.69;;;3.10;82.21
10832;BME280;5469;48.574;8.768;2023-01-25T13:12:02;95804.19;;;2.82;82.78
10832;BME280;5469;48.574;8.768;2023-01-25T13:14:37;95799.13;;;2.67;83.44
10832;BME280;5469;48.574;8.768;2023-01-25T13:17:19;95793.31;;;2.85;83.55
10832;BME280;5469;48.574;8.768;2023-01-25T13:19:54;95793.34;;;2.98;83.21
10832;BME280;5469;48.574;8.768;2023-01-25T13:22:53;95785.22;;;2.67;84.16
10832;BME280;5469;48.574;8.768;2023-01-25T13:25:30;95786.47;;;2.71;82.78
10832;BME280;5469;48.574;8.768;2023-01-25T13:31:44;95781.03;;;2.79;83.05
10832;BME280;5469;48.574;8.768;2023-01-25T13:37:25;95782.22;;;2.63;83.67
10832;BME280;5469;48.574;8.768;2023-01-25T13:40:00;95771.97;;;2.88;82.60
10832;BME280;5469;48.574;8.768;2023-01-25T13:42:37;95768.38;;;2.96;82.94
10832;BME280;5469;48.574;8.768;2023-01-25T13:45:13;95760.88;;;2.66;82.86
10832;BME280;5469;48.574;8.768;2023-01-25T13:48:00;95763.09;;;2.89;83.08
10832;BME280;5469;48.574;8.768;2023-01-25T13:50:36;95763.31;;;3.08;82.75
10832;BME280;5469;48.574;8.768;2023-01-25T13:53:19;95759.47;;;2.63;84.04
10832;BME280;5469;48.574;8.768;2023-01-25T13:55:55;95753.19;;;2.65;83.04
10832;BME280;5469;48.574;8.768;2023-01-25T13:58:32;95744.56;;;2.97;82.97
10832;BME280;5469;48.574;8.768;2023-01-25T14:01:16;95744.16;;;2.74;83.04
10832;BME280;5469;48.574;8.768;2023-01-25T14:03:53;95738.53;;;2.90;82.68
10832;BME280;5469;48.574;8.768;2023-01-25T14:06:29;95736.13;;;3.02;81.72
10832;BME280;5469;48.574;8.768;2023-01-25T14:09:04;95735.28;;;2.75;82.47
10832;BME280;5469;48.574;8.768;2023-01-25T14:11:43;95737.75;;;2.96;82.77
10832;BME280;5469;48.574;8.768;2023-01-25T14:14:24;95740.53;;;2.95;83.02
10832;BME280;5469;48.574;8.768;2023-01-25T14:17:03;95736.53;;;2.79;82.20
10832;BME280;5469;48.574;8.768;2023-01-25T14:19:38;95734.91;;;2.84;82.60
10832;BME280;5469;48.574;8.768;2023-01-25T14:22:18;95729.47;;;2.86;82.70
10832;BME280;5469;48.574;8.768;2023-01-25T14:25:04;95730.06;;;2.81;83.24